createdAt,value
2018-05-12T00:01:26.398Z,10.9
2018-05-12T00:11:26.202Z,10.8
2018-05-12T00:21:26.338Z,10.3
2018-05-12T00:31:27.538Z,10.9
2018-05-12T00:41:26.699Z,8.3
2018-05-12T00:51:27.742Z,9.3
2018-05-12T01:01:26.527Z,8.2
2018-05-12T01:11:26.823Z,8.7
2018-05-12T01:21:27.023Z,8.2
2018-05-12T01:31:26.428Z,9.0
2018-05-12T01:41:27.860Z,8.2
2018-05-12T01:51:26.538Z,9.1
2018-05-12T02:01:26.606Z,7.8
2018-05-12T02:11:27.594Z,9.5
2018-05-12T02:21:28.142Z,10.0
2018-05-12T02:31:27.761Z,10.2
2018-05-12T02:41:26.093Z,11.6
2018-05-12T02:51:27.138Z,11.1
2018-05-12T03:01:27.286Z,11.2
2018-05-12T03:11:26.142Z,10.1
2018-05-12T03:21:26.714Z,10.7
2018-05-12T03:31:28.091Z,9.9
2018-05-12T03:41:26.161Z,11.0
2018-05-12T03:51:26.067Z,8.5
2018-05-12T04:01:27.455Z,10.1
2018-05-12T04:11:26.887Z,9.3
2018-05-12T04:21:25.847Z,9.1
2018-05-12T04:31:26.373Z,10.6
2018-05-12T04:41:26.723Z,10.5
2018-05-12T04:51:26.705Z,12.4
2018-05-12T05:01:27.672Z,11.9
2018-05-12T05:11:28.142Z,12.4
2018-05-12T05:21:26.645Z,15.4
2018-05-12T05:31:26.389Z,14.1
2018-05-12T05:41:26.238Z,17.2
2018-05-12T05:51:24.799Z,15.9
2018-05-12T06:01:25.787Z,16.2
2018-05-12T06:11:25.572Z,16.1
2018-05-12T06:21:26.581Z,15.0
2018-05-12T06:31:26.937Z,19.0
2018-05-12T06:41:26.028Z,16.9
2018-05-12T06:51:26.841Z,23.6
2018-05-12T07:01:27.014Z,20.4
2018-05-12T07:11:25.080Z,18.9
2018-05-12T07:21:27.364Z,20.2
2018-05-12T08:11:26.787Z,13.5
2018-05-12T08:21:26.280Z,10.2
2018-05-12T08:31:25.723Z,9.3
2018-05-12T08:41:25.978Z,10.5
2018-05-12T08:51:25.232Z,7.9
2018-05-12T09:01:26.679Z,6.2
2018-05-12T09:11:25.537Z,5.3
2018-05-12T09:21:25.929Z,5.6
2018-05-12T09:31:25.849Z,4.1
2018-05-12T09:41:25.606Z,3.7
2018-05-12T09:51:28.752Z,3.1
2018-05-12T10:01:27.657Z,3.2
2018-05-12T10:11:25.768Z,2.7
2018-05-12T10:21:26.408Z,2.8
2018-05-12T10:31:25.517Z,2.6
2018-05-12T10:41:25.369Z,2.5
2018-05-12T11:31:25.608Z,2.2
2018-05-12T11:41:26.424Z,2.0
2018-05-12T11:51:28.353Z,2.3
2018-05-12T12:01:25.849Z,2.2
2018-05-12T12:11:26.035Z,2.2
2018-05-12T12:21:27.994Z,2.5
2018-05-12T12:31:25.220Z,2.6
2018-05-12T12:41:25.161Z,2.3
2018-05-12T12:51:26.517Z,2.7
2018-05-12T13:01:26.245Z,3.2
2018-05-12T13:11:25.853Z,2.9
2018-05-12T13:21:26.031Z,2.2
2018-05-12T13:31:27.708Z,2.3
2018-05-12T13:41:25.600Z,2.3
2018-05-12T13:51:25.569Z,2.5
2018-05-12T14:01:25.975Z,2.3
2018-05-12T14:11:27.836Z,2.4
2018-05-12T14:21:25.671Z,2.4
2018-05-12T14:31:25.432Z,2.1
2018-05-12T14:41:25.695Z,2.0
2018-05-12T14:51:26.127Z,1.7
2018-05-12T15:01:25.744Z,2.4
2018-05-12T15:11:25.932Z,1.8
2018-05-12T15:21:27.839Z,1.9
2018-05-12T15:31:26.193Z,2.3
2018-05-12T15:41:25.981Z,2.5
2018-05-12T15:51:25.755Z,2.2
2018-05-12T16:01:26.266Z,2.0
2018-05-12T16:11:26.441Z,2.4
2018-05-12T16:21:25.558Z,2.2
2018-05-12T16:31:25.860Z,2.3
2018-05-12T16:41:26.181Z,2.5
2018-05-12T16:51:25.726Z,2.3
2018-05-12T17:01:25.543Z,2.3
2018-05-12T17:11:25.974Z,2.2
2018-05-12T17:21:25.108Z,2.4
2018-05-12T17:31:27.182Z,2.9
2018-05-12T17:41:25.009Z,3.0
2018-05-12T17:51:25.948Z,4.4
2018-05-12T18:01:27.306Z,2.9
2018-05-12T18:11:25.167Z,3.8
2018-05-12T18:21:25.625Z,3.3
2018-05-12T18:31:26.273Z,4.3
2018-05-12T18:41:25.110Z,5.7
2018-05-12T18:51:25.675Z,6.4
2018-05-12T19:01:25.688Z,6.9
2018-05-12T19:11:27.297Z,7.9
2018-05-12T19:21:25.424Z,6.4
2018-05-12T19:31:25.232Z,5.3
2018-05-12T19:41:26.329Z,5.3
2018-05-12T19:51:25.165Z,4.0
2018-05-12T20:01:26.011Z,4.6
2018-05-12T20:11:24.953Z,4.9
2018-05-12T20:21:26.063Z,4.1
2018-05-12T20:31:25.404Z,4.5
2018-05-12T20:41:26.225Z,5.2
2018-05-12T20:51:25.667Z,5.4
2018-05-12T21:01:26.763Z,4.3
2018-05-12T21:11:25.737Z,4.8
2018-05-12T21:21:27.414Z,4.6
2018-05-12T21:31:26.218Z,5.5
2018-05-12T21:41:29.255Z,5.0
2018-05-12T21:51:27.133Z,5.0
2018-05-12T22:01:25.507Z,4.8
2018-05-12T22:11:26.210Z,4.2
2018-05-12T22:23:53.441Z,4.5
2018-05-12T22:31:26.078Z,5.0
2018-05-12T22:41:26.710Z,5.2
2018-05-12T22:51:28.294Z,4.7
2018-05-12T23:01:25.234Z,4.9
2018-05-12T23:11:25.631Z,5.0
2018-05-12T23:21:25.546Z,4.7
2018-05-12T23:31:26.836Z,4.6
2018-05-12T23:41:27.355Z,4.7
2018-05-12T23:51:26.188Z,4.6
